createdAt,value
2018-12-29T00:01:35.435Z,33.20
2018-12-29T00:04:04.822Z,32.43
2018-12-29T00:06:34.219Z,33.20
2018-12-29T00:09:04.592Z,32.67
2018-12-29T00:11:33.995Z,33.13
2018-12-29T00:14:03.402Z,32.13
2018-12-29T00:16:32.714Z,33.07
2018-12-29T00:19:02.115Z,33.40
2018-12-29T00:21:31.535Z,32.47
2018-12-29T00:24:00.962Z,32.23
2018-12-29T00:26:30.366Z,31.97
2018-12-29T00:28:59.877Z,32.50
2018-12-29T00:31:29.316Z,30.87
2018-12-29T00:33:58.666Z,33.57
2018-12-29T00:36:28.058Z,32.47
2018-12-29T00:38:57.441Z,32.43
2018-12-29T00:41:26.878Z,30.70
2018-12-29T00:43:56.276Z,31.53
2018-12-29T00:46:25.654Z,32.77
2018-12-29T00:48:55.024Z,32.50
2018-12-29T00:51:24.420Z,32.27
2018-12-29T00:53:53.767Z,32.73
2018-12-29T00:56:23.091Z,33.20
2018-12-29T00:58:52.420Z,31.60
2018-12-29T01:01:21.827Z,31.13
2018-12-29T01:03:51.189Z,33.07
2018-12-29T01:06:20.585Z,32.47
2018-12-29T01:08:50.026Z,31.13
2018-12-29T01:11:19.439Z,32.60
2018-12-29T01:13:48.802Z,31.70
2018-12-29T01:16:18.314Z,31.83
2018-12-29T01:18:47.628Z,31.30
2018-12-29T01:21:17.030Z,30.93
2018-12-29T01:23:46.420Z,31.87
2018-12-29T01:26:15.723Z,31.33
2018-12-29T01:28:45.176Z,30.33
2018-12-29T01:31:14.482Z,31.07
2018-12-29T01:33:43.817Z,31.13
2018-12-29T01:36:13.141Z,32.07
2018-12-29T01:38:42.524Z,30.77
2018-12-29T01:41:12.023Z,30.50
2018-12-29T01:43:41.251Z,31.77
2018-12-29T01:46:10.581Z,31.00
2018-12-29T01:48:39.943Z,31.13
2018-12-29T01:51:09.285Z,31.13
2018-12-29T01:53:38.698Z,29.57
2018-12-29T01:56:08.086Z,31.77
2018-12-29T01:58:37.514Z,30.47
2018-12-29T02:01:06.942Z,31.57
2018-12-29T02:03:36.420Z,31.27
2018-12-29T02:06:05.834Z,29.43
2018-12-29T02:08:35.177Z,29.43
2018-12-29T02:11:04.581Z,32.10
2018-12-29T02:13:34.008Z,30.40
2018-12-29T02:16:03.449Z,31.33
2018-12-29T02:18:32.885Z,31.23
2018-12-29T02:21:02.311Z,32.17
2018-12-29T02:23:31.687Z,33.30
2018-12-29T02:26:01.170Z,32.10
2018-12-29T02:28:30.509Z,29.43
2018-12-29T02:30:59.833Z,30.17
2018-12-29T02:33:29.232Z,29.47
2018-12-29T02:35:58.606Z,29.77
2018-12-29T02:38:27.982Z,30.50
2018-12-29T02:40:57.393Z,30.73
2018-12-29T02:43:26.814Z,29.73
2018-12-29T02:45:56.244Z,31.10
2018-12-29T02:48:25.624Z,31.40
2018-12-29T02:50:55.018Z,30.00
2018-12-29T02:53:24.392Z,31.03
2018-12-29T02:55:53.845Z,30.43
2018-12-29T02:58:23.233Z,30.83
2018-12-29T03:00:52.696Z,30.73
2018-12-29T03:03:22.169Z,32.07
2018-12-29T03:05:51.574Z,31.73
2018-12-29T03:08:20.899Z,31.30
2018-12-29T03:10:50.266Z,31.37
2018-12-29T03:13:19.641Z,30.90
2018-12-29T03:15:49.047Z,32.57
2018-12-29T03:18:18.436Z,32.03
2018-12-29T03:20:47.792Z,31.93
2018-12-29T03:23:17.211Z,32.07
2018-12-29T03:25:46.653Z,31.23
2018-12-29T03:28:16.054Z,30.20
2018-12-29T03:30:45.497Z,32.37
2018-12-29T03:33:14.908Z,31.63
2018-12-29T03:35:44.332Z,31.47
2018-12-29T03:38:13.703Z,30.50
2018-12-29T03:40:44.974Z,31.17
2018-12-29T03:43:14.296Z,30.87
2018-12-29T03:45:49.036Z,33.07
2018-12-29T03:48:14.757Z,31.63
2018-12-29T03:50:44.141Z,32.73
2018-12-29T03:53:13.523Z,31.87
2018-12-29T03:55:42.949Z,32.60
2018-12-29T03:58:12.339Z,32.10
2018-12-29T04:00:41.677Z,32.87
2018-12-29T04:03:11.063Z,31.00
2018-12-29T04:05:40.458Z,31.37
2018-12-29T04:08:09.833Z,31.83
2018-12-29T04:10:39.238Z,33.10
2018-12-29T04:13:08.605Z,30.93
2018-12-29T04:15:37.997Z,31.80
2018-12-29T04:18:07.410Z,31.43
2018-12-29T04:20:36.814Z,31.47
2018-12-29T04:23:06.135Z,31.23
2018-12-29T04:25:35.523Z,32.53
2018-12-29T04:28:04.996Z,30.77
2018-12-29T04:30:34.340Z,31.07
2018-12-29T04:33:03.729Z,31.27
2018-12-29T04:35:33.143Z,32.53
2018-12-29T04:38:02.541Z,31.57
2018-12-29T04:40:31.879Z,30.70
2018-12-29T04:43:01.285Z,30.83
2018-12-29T04:45:30.694Z,30.83
2018-12-29T04:48:00.103Z,32.27
2018-12-29T04:50:29.490Z,31.07
2018-12-29T04:52:58.884Z,31.10
2018-12-29T04:55:28.282Z,30.80
2018-12-29T04:57:57.688Z,31.07
2018-12-29T05:00:27.051Z,30.07
2018-12-29T05:02:56.490Z,29.47
2018-12-29T05:05:28.625Z,29.80
2018-12-29T05:07:57.985Z,30.30
2018-12-29T05:10:27.369Z,31.40
2018-12-29T05:12:56.725Z,31.73
2018-12-29T05:15:26.097Z,31.10
2018-12-29T05:17:55.479Z,29.93
2018-12-29T05:20:24.749Z,31.73
2018-12-29T05:22:54.145Z,32.77
2018-12-29T05:25:23.570Z,29.93
2018-12-29T05:27:52.920Z,31.83
2018-12-29T05:30:22.350Z,31.67
2018-12-29T05:32:51.770Z,31.13
2018-12-29T05:35:21.221Z,31.87
2018-12-29T05:37:50.612Z,31.07
2018-12-29T05:40:20.036Z,30.10
2018-12-29T05:42:49.443Z,30.00
2018-12-29T05:45:18.773Z,30.17
2018-12-29T05:47:48.188Z,30.63
2018-12-29T05:50:17.575Z,30.23
2018-12-29T05:52:46.981Z,29.60
2018-12-29T05:55:16.434Z,30.20
2018-12-29T05:57:45.810Z,28.37
2018-12-29T06:00:15.289Z,29.13
2018-12-29T06:02:44.699Z,28.50
2018-12-29T06:05:14.128Z,27.83
2018-12-29T06:07:43.492Z,27.13
2018-12-29T06:10:12.894Z,27.83
2018-12-29T06:12:42.338Z,27.67
2018-12-29T06:15:11.751Z,28.17
2018-12-29T06:17:41.156Z,27.33
2018-12-29T06:20:10.622Z,26.43
2018-12-29T06:22:40.038Z,26.67
2018-12-29T06:25:09.470Z,27.03
2018-12-29T06:27:38.870Z,27.07
2018-12-29T06:30:08.300Z,27.10
2018-12-29T06:32:37.675Z,26.17
2018-12-29T06:35:07.109Z,26.60
2018-12-29T06:37:36.538Z,27.17
2018-12-29T06:40:05.957Z,27.97
2018-12-29T06:42:35.263Z,26.67
2018-12-29T06:45:04.745Z,27.77
2018-12-29T06:47:34.033Z,27.83
2018-12-29T06:50:03.926Z,27.57
2018-12-29T06:52:33.350Z,27.20
2018-12-29T06:55:02.725Z,27.80
2018-12-29T06:57:32.162Z,27.77
2018-12-29T07:00:01.467Z,27.30
2018-12-29T07:02:30.886Z,27.63
2018-12-29T07:05:00.357Z,26.97
2018-12-29T07:07:29.754Z,27.20
2018-12-29T07:10:00.904Z,26.83
2018-12-29T07:12:30.242Z,27.30
2018-12-29T07:14:59.639Z,27.60
2018-12-29T07:17:29.086Z,26.93
2018-12-29T07:19:58.435Z,27.63
2018-12-29T07:22:27.851Z,26.40
2018-12-29T07:24:57.248Z,27.20
2018-12-29T07:27:26.639Z,27.20
2018-12-29T07:29:55.955Z,27.67
2018-12-29T07:32:25.309Z,28.17
2018-12-29T07:34:54.763Z,28.57
2018-12-29T07:37:24.137Z,28.80
2018-12-29T07:39:53.527Z,30.37
2018-12-29T07:42:22.930Z,28.67
2018-12-29T07:44:52.244Z,27.93
2018-12-29T07:47:21.655Z,27.80
2018-12-29T07:49:51.155Z,29.33
2018-12-29T07:52:20.590Z,28.63
2018-12-29T07:54:49.987Z,27.77
2018-12-29T07:57:19.447Z,27.37
2018-12-29T07:59:48.928Z,27.53
2018-12-29T08:02:18.420Z,26.73
2018-12-29T08:04:47.890Z,26.87
2018-12-29T08:07:17.284Z,26.20
2018-12-29T08:09:46.716Z,26.70
2018-12-29T08:12:17.870Z,26.73
2018-12-29T08:14:47.268Z,27.07
2018-12-29T08:17:17.439Z,26.57
2018-12-29T08:19:46.986Z,26.27
2018-12-29T08:22:16.392Z,25.27
2018-12-29T08:24:45.823Z,27.27
2018-12-29T08:27:15.212Z,25.53
2018-12-29T08:29:44.630Z,25.50
2018-12-29T08:32:13.981Z,24.93
2018-12-29T08:34:43.321Z,25.33
2018-12-29T08:37:12.685Z,24.83
2018-12-29T08:39:42.055Z,24.30
2018-12-29T08:42:11.474Z,27.33
2018-12-29T08:44:40.866Z,24.30
2018-12-29T08:47:10.305Z,23.90
2018-12-29T08:49:41.293Z,25.70
2018-12-29T08:52:10.730Z,24.13
2018-12-29T08:54:40.112Z,24.97
2018-12-29T08:57:09.514Z,23.40
2018-12-29T08:59:38.882Z,25.40
2018-12-29T09:02:08.300Z,24.57
2018-12-29T09:04:37.721Z,24.13
2018-12-29T09:07:07.121Z,24.53
2018-12-29T09:09:36.579Z,23.73
2018-12-29T09:12:05.937Z,23.47
2018-12-29T09:14:35.309Z,23.30
2018-12-29T09:17:11.892Z,23.13
2018-12-29T09:19:35.736Z,23.93
2018-12-29T09:22:05.136Z,24.83
2018-12-29T09:24:34.539Z,23.53
2018-12-29T09:27:03.946Z,22.80
2018-12-29T09:29:33.356Z,24.37
2018-12-29T09:32:02.646Z,22.93
2018-12-29T09:34:32.076Z,22.30
2018-12-29T09:37:01.428Z,23.30
2018-12-29T09:39:30.928Z,23.43
2018-12-29T09:42:00.283Z,23.07
2018-12-29T09:44:29.707Z,23.07
2018-12-29T09:46:59.019Z,23.83
2018-12-29T09:49:28.387Z,24.37
2018-12-29T09:51:57.761Z,22.83
2018-12-29T09:54:27.118Z,23.00
2018-12-29T09:56:56.489Z,23.87
2018-12-29T09:59:25.897Z,24.63
2018-12-29T10:01:55.256Z,23.50
2018-12-29T10:04:24.686Z,23.03
2018-12-29T10:06:54.095Z,23.43
2018-12-29T10:09:23.577Z,23.63
2018-12-29T10:11:52.979Z,24.43
2018-12-29T10:14:22.322Z,25.77
2018-12-29T10:16:51.713Z,25.30
2018-12-29T10:19:21.138Z,26.40
2018-12-29T10:21:50.530Z,26.27
2018-12-29T10:24:19.987Z,25.23
2018-12-29T10:26:49.326Z,25.47
2018-12-29T10:29:18.715Z,25.03
2018-12-29T10:31:48.118Z,25.53
2018-12-29T10:34:17.553Z,25.30
2018-12-29T10:36:46.940Z,24.77
2018-12-29T10:39:16.306Z,25.30
2018-12-29T10:41:45.723Z,27.43
2018-12-29T10:44:15.139Z,25.63
2018-12-29T10:46:44.535Z,25.93
2018-12-29T10:49:13.977Z,24.53
2018-12-29T10:51:43.364Z,26.17
2018-12-29T10:54:12.793Z,25.70
2018-12-29T10:56:42.133Z,25.50
2018-12-29T10:59:11.591Z,25.77
2018-12-29T11:01:40.984Z,25.77
2018-12-29T11:04:10.528Z,26.90
2018-12-29T11:06:40.096Z,26.67
2018-12-29T11:09:09.544Z,25.43
2018-12-29T11:11:39.012Z,25.23
2018-12-29T11:14:08.480Z,26.43
2018-12-29T11:16:40.640Z,25.77
2018-12-29T11:19:10.118Z,25.43
2018-12-29T11:21:39.515Z,25.00
2018-12-29T11:24:09.027Z,25.13
2018-12-29T11:26:38.430Z,24.80
2018-12-29T11:29:08.011Z,26.43
2018-12-29T11:31:37.455Z,25.60
2018-12-29T11:34:06.905Z,25.93
2018-12-29T11:36:36.295Z,24.27
2018-12-29T11:39:07.208Z,25.03
2018-12-29T11:41:36.589Z,24.37
2018-12-29T11:44:06.285Z,25.27
2018-12-29T11:46:35.644Z,24.67
2018-12-29T11:49:05.038Z,24.37
2018-12-29T11:51:34.347Z,24.47
2018-12-29T11:54:03.769Z,24.90
2018-12-29T11:56:33.162Z,22.10
2018-12-29T11:59:02.698Z,22.97
2018-12-29T12:01:32.083Z,23.17
2018-12-29T12:04:01.461Z,22.03
2018-12-29T12:06:30.947Z,22.60
2018-12-29T12:09:00.318Z,22.63
2018-12-29T12:11:29.985Z,22.00
2018-12-29T12:13:59.309Z,24.60
2018-12-29T12:16:28.733Z,24.90
2018-12-29T12:18:58.172Z,23.70
2018-12-29T12:21:27.603Z,22.77
2018-12-29T12:23:56.980Z,23.33
2018-12-29T12:26:26.339Z,24.70
2018-12-29T12:28:55.777Z,22.73
2018-12-29T12:31:25.546Z,23.80
2018-12-29T12:33:54.856Z,23.40
2018-12-29T12:36:24.223Z,22.67
2018-12-29T12:38:53.731Z,23.37
2018-12-29T12:41:26.531Z,22.77
2018-12-29T12:43:56.144Z,23.83
2018-12-29T12:46:25.564Z,23.80
2018-12-29T12:48:55.255Z,21.93
2018-12-29T12:51:24.572Z,23.60
2018-12-29T12:53:54.367Z,22.60
2018-12-29T12:56:23.758Z,22.40
2018-12-29T12:58:53.162Z,23.13
2018-12-29T13:01:22.741Z,23.40
2018-12-29T13:03:52.143Z,21.20
2018-12-29T13:06:21.527Z,22.23
2018-12-29T13:08:50.912Z,22.07
2018-12-29T13:11:20.330Z,21.83
2018-12-29T13:13:49.731Z,22.70
2018-12-29T13:16:19.183Z,22.47
2018-12-29T13:18:48.609Z,21.27
2018-12-29T13:21:18.049Z,21.03
2018-12-29T13:23:47.466Z,21.73
2018-12-29T13:26:16.861Z,21.80
2018-12-29T13:28:46.264Z,21.20
2018-12-29T13:31:15.593Z,22.03
2018-12-29T13:33:44.947Z,22.13
2018-12-29T13:36:14.650Z,23.10
2018-12-29T13:38:44.056Z,22.63
2018-12-29T13:41:13.417Z,22.70
2018-12-29T13:43:42.912Z,22.13
2018-12-29T13:46:12.294Z,21.47
2018-12-29T13:48:41.702Z,22.50
2018-12-29T13:51:13.388Z,23.27
2018-12-29T13:53:42.867Z,22.53
2018-12-29T13:56:12.228Z,22.27
2018-12-29T13:58:42.110Z,23.50
2018-12-29T14:01:11.558Z,22.27
2018-12-29T14:03:40.980Z,24.23
2018-12-29T14:06:10.385Z,24.33
2018-12-29T14:08:39.836Z,24.33
2018-12-29T14:11:09.245Z,24.83
2018-12-29T14:13:38.652Z,23.37
2018-12-29T14:16:08.099Z,23.40
2018-12-29T14:18:37.549Z,23.80
2018-12-29T14:21:06.961Z,25.07
2018-12-29T14:23:36.401Z,25.27
2018-12-29T14:26:05.781Z,24.23
2018-12-29T14:28:35.243Z,23.63
2018-12-29T14:31:04.815Z,24.77
2018-12-29T14:33:34.654Z,23.87
2018-12-29T14:36:04.060Z,23.93
2018-12-29T14:38:33.483Z,25.03
2018-12-29T14:41:02.878Z,24.40
2018-12-29T14:43:32.320Z,24.07
2018-12-29T14:46:03.476Z,24.97
2018-12-29T14:48:35.994Z,25.73
2018-12-29T14:51:05.984Z,26.60
2018-12-29T14:53:35.486Z,26.30
2018-12-29T14:56:04.880Z,24.70
2018-12-29T14:58:34.307Z,24.43
2018-12-29T15:01:03.755Z,26.40
2018-12-29T15:03:33.144Z,26.93
2018-12-29T15:06:02.549Z,26.77
2018-12-29T15:08:31.969Z,26.23
2018-12-29T15:11:01.426Z,26.80
2018-12-29T15:13:31.065Z,27.60
2018-12-29T15:16:00.471Z,27.40
2018-12-29T15:18:29.920Z,26.53
2018-12-29T15:20:59.900Z,28.60
2018-12-29T15:23:29.316Z,28.13
2018-12-29T15:25:59.276Z,26.80
2018-12-29T15:28:31.119Z,27.23
2018-12-29T15:31:03.527Z,27.43
2018-12-29T15:33:33.298Z,29.00
2018-12-29T15:36:02.746Z,28.20
2018-12-29T15:38:32.175Z,28.97
2018-12-29T15:41:01.867Z,27.60
2018-12-29T15:43:31.281Z,28.27
2018-12-29T15:46:00.722Z,28.43
2018-12-29T15:48:30.681Z,27.97
2018-12-29T15:51:00.102Z,29.83
2018-12-29T15:53:31.025Z,28.47
2018-12-29T15:56:00.473Z,29.30
2018-12-29T15:58:29.854Z,28.33
2018-12-29T16:00:59.234Z,28.17
2018-12-29T16:03:28.738Z,30.17
2018-12-29T16:05:58.532Z,29.90
2018-12-29T16:08:28.359Z,29.60
2018-12-29T16:10:57.741Z,33.07
2018-12-29T16:13:27.158Z,32.83
2018-12-29T16:15:56.453Z,30.27
2018-12-29T16:18:26.264Z,32.57
2018-12-29T16:20:55.666Z,33.63
2018-12-29T16:23:26.212Z,33.40
2018-12-29T16:25:55.790Z,32.67
2018-12-29T16:28:25.201Z,32.70
2018-12-29T16:30:54.601Z,31.93
2018-12-29T16:33:23.998Z,33.43
2018-12-29T16:35:53.680Z,32.77
2018-12-29T16:38:23.059Z,33.10
2018-12-29T16:40:57.779Z,32.47
2018-12-29T16:43:23.592Z,33.77
2018-12-29T16:45:53.014Z,32.60
2018-12-29T16:48:22.405Z,34.97
2018-12-29T16:50:52.124Z,33.03
2018-12-29T16:53:28.923Z,35.30
2018-12-29T16:55:52.640Z,34.77
2018-12-29T16:58:22.032Z,36.77
2018-12-29T17:00:51.823Z,37.17
2018-12-29T17:03:21.253Z,35.90
2018-12-29T17:05:50.699Z,35.70
2018-12-29T17:08:20.097Z,35.37
2018-12-29T17:10:49.862Z,34.97
2018-12-29T17:13:19.283Z,35.10
2018-12-29T17:15:48.726Z,35.87
2018-12-29T17:18:18.091Z,36.20
2018-12-29T17:20:47.533Z,34.07
2018-12-29T17:23:16.944Z,34.90
2018-12-29T17:25:46.356Z,35.77
2018-12-29T17:28:15.784Z,35.23
2018-12-29T17:30:45.222Z,34.70
2018-12-29T17:33:14.594Z,34.43
2018-12-29T17:35:43.910Z,32.40
2018-12-29T17:38:13.630Z,33.60
2018-12-29T17:40:43.005Z,33.20
2018-12-29T17:43:12.329Z,33.57
2018-12-29T17:45:41.755Z,34.27
2018-12-29T17:48:11.087Z,30.73
2018-12-29T17:50:40.479Z,28.40
2018-12-29T17:53:09.924Z,28.60
2018-12-29T17:55:39.369Z,29.13
2018-12-29T17:58:08.830Z,29.00
2018-12-29T18:00:38.277Z,28.00
2018-12-29T18:03:07.824Z,27.73
2018-12-29T18:05:39.543Z,27.07
2018-12-29T18:08:08.900Z,26.13
2018-12-29T18:10:38.362Z,24.07
2018-12-29T18:13:07.726Z,22.97
2018-12-29T18:15:37.132Z,23.17
2018-12-29T18:18:06.552Z,21.67
2018-12-29T18:20:36.254Z,21.10
2018-12-29T18:23:05.684Z,20.47
2018-12-29T18:25:35.157Z,20.57
2018-12-29T18:28:04.619Z,18.97
2018-12-29T18:30:34.151Z,18.50
2018-12-29T18:33:04.465Z,17.73
2018-12-29T18:35:33.920Z,14.63
2018-12-29T18:38:03.426Z,14.50
2018-12-29T18:40:32.815Z,14.37
2018-12-29T18:43:02.521Z,12.23
2018-12-29T18:45:32.648Z,11.50
2018-12-29T18:48:02.101Z,10.67
2018-12-29T18:50:31.515Z,10.30
2018-12-29T18:53:00.851Z,9.97
2018-12-29T18:55:30.288Z,10.80
2018-12-29T18:57:59.694Z,9.93
2018-12-29T19:00:29.485Z,9.53
2018-12-29T19:02:58.891Z,9.00
2018-12-29T19:05:28.324Z,11.77
2018-12-29T19:07:57.710Z,9.17
2018-12-29T19:10:28.845Z,7.90
2018-12-29T19:12:58.245Z,7.77
2018-12-29T19:15:27.706Z,7.43
2018-12-29T19:17:57.322Z,7.30
2018-12-29T19:20:26.994Z,9.83
2018-12-29T19:22:56.342Z,8.37
2018-12-29T19:25:25.772Z,5.07
2018-12-29T19:27:55.124Z,4.90
2018-12-29T19:30:24.978Z,4.20
2018-12-29T19:32:54.683Z,4.27
2018-12-29T19:35:24.066Z,7.90
2018-12-29T19:37:53.414Z,4.73
2018-12-29T19:40:22.831Z,4.83
2018-12-29T19:42:52.664Z,16.57
2018-12-29T19:45:22.032Z,4.07
2018-12-29T19:47:51.740Z,3.10
2018-12-29T19:50:21.523Z,2.80
2018-12-29T19:52:51.297Z,3.27
2018-12-29T19:55:20.741Z,3.53
2018-12-29T19:57:50.080Z,3.43
2018-12-29T20:00:19.651Z,4.33
2018-12-29T20:02:49.447Z,4.60
2018-12-29T20:05:18.935Z,4.17
2018-12-29T20:07:48.341Z,7.00
2018-12-29T20:10:17.740Z,4.37
2018-12-29T20:12:47.103Z,3.53
2018-12-29T20:15:16.538Z,4.43
2018-12-29T20:17:45.992Z,4.67
2018-12-29T20:20:15.436Z,5.43
2018-12-29T20:22:44.831Z,5.43
2018-12-29T20:25:14.232Z,7.40
2018-12-29T20:27:43.616Z,6.07
2018-12-29T20:30:12.898Z,14.67
2018-12-29T20:32:42.303Z,11.80
2018-12-29T20:35:11.694Z,6.67
2018-12-29T20:37:41.601Z,5.20
2018-12-29T20:40:11.197Z,4.73
2018-12-29T20:42:40.600Z,8.60
2018-12-29T20:45:10.004Z,5.90
2018-12-29T20:47:39.429Z,5.87
2018-12-29T20:50:09.552Z,5.97
2018-12-29T20:52:40.292Z,4.87
2018-12-29T20:55:09.730Z,3.97
2018-12-29T20:57:39.114Z,4.10
2018-12-29T21:00:10.004Z,5.83
2018-12-29T21:02:39.432Z,6.20
2018-12-29T21:05:09.149Z,7.07
2018-12-29T21:07:38.514Z,5.10
2018-12-29T21:10:08.052Z,4.30
2018-12-29T21:12:37.449Z,3.43
2018-12-29T21:15:07.198Z,4.63
2018-12-29T21:17:36.596Z,4.47
2018-12-29T21:20:06.143Z,4.10
2018-12-29T21:22:35.501Z,4.67
2018-12-29T21:25:06.052Z,7.73
2018-12-29T21:27:35.453Z,7.73
2018-12-29T21:30:05.038Z,7.27
2018-12-29T21:32:34.480Z,6.13
2018-12-29T21:35:03.849Z,4.67
2018-12-29T21:37:33.231Z,6.73
2018-12-29T21:40:02.682Z,4.43
2018-12-29T21:42:32.053Z,3.93
2018-12-29T21:45:01.894Z,4.43
2018-12-29T21:47:31.304Z,3.93
2018-12-29T21:50:00.669Z,3.90
2018-12-29T21:52:30.105Z,4.60
2018-12-29T21:54:59.492Z,4.13
2018-12-29T21:57:29.152Z,3.67
2018-12-29T21:59:58.582Z,4.80
2018-12-29T22:02:27.982Z,3.97
2018-12-29T22:04:57.469Z,3.97
2018-12-29T22:07:26.826Z,4.13
2018-12-29T22:09:56.514Z,4.27
2018-12-29T22:12:25.903Z,5.03
2018-12-29T22:14:55.331Z,3.80
2018-12-29T22:17:24.724Z,12.17
2018-12-29T22:19:54.098Z,6.40
2018-12-29T22:22:23.497Z,6.87
2018-12-29T22:24:52.859Z,9.60
2018-12-29T22:27:22.240Z,6.67
2018-12-29T22:29:51.629Z,5.77
2018-12-29T22:32:21.019Z,6.53
2018-12-29T22:34:50.437Z,8.37
2018-12-29T22:37:19.862Z,7.43
2018-12-29T22:39:49.259Z,5.53
2018-12-29T22:42:18.659Z,6.93
2018-12-29T22:44:48.044Z,5.30
2018-12-29T22:47:17.479Z,5.40
2018-12-29T22:49:46.883Z,4.10
2018-12-29T22:52:16.240Z,3.80
2018-12-29T22:54:45.687Z,4.03
2018-12-29T22:57:15.000Z,5.43
2018-12-29T22:59:44.412Z,5.50
2018-12-29T23:02:13.828Z,5.00
2018-12-29T23:04:43.235Z,4.73
2018-12-29T23:07:13.017Z,4.47
2018-12-29T23:09:42.462Z,5.00
2018-12-29T23:12:11.867Z,3.90
2018-12-29T23:14:41.168Z,5.40
2018-12-29T23:17:10.597Z,4.17
2018-12-29T23:19:40.028Z,4.80
2018-12-29T23:22:09.439Z,4.83
2018-12-29T23:24:38.825Z,4.43
2018-12-29T23:27:08.275Z,4.30
2018-12-29T23:29:37.659Z,4.27
2018-12-29T23:32:07.111Z,3.70
2018-12-29T23:34:36.652Z,5.10
2018-12-29T23:37:06.056Z,7.50
2018-12-29T23:39:35.473Z,5.10
2018-12-29T23:42:04.856Z,4.83
2018-12-29T23:44:34.262Z,4.77
2018-12-29T23:47:03.627Z,6.40
2018-12-29T23:49:33.263Z,6.10
2018-12-29T23:52:03.080Z,4.87
2018-12-29T23:54:32.468Z,5.03
2018-12-29T23:57:01.891Z,4.00
2018-12-29T23:59:31.279Z,5.03
